Ana Sayfa
METAR-TAF:

METAR-TAF

Havaalanları :

Aniak, Alaska, Amerika Birleşik Devletleri

Enlem: 61-34-53N, Boylam: 159-32-34W, yükseklik: 27 m

Güncel hava durumu gözlemi

Rapor saat 06:56 UTC de 28 dakika önce yapıldı.
Rüzgar kuzeydan 4 kt
Sıcaklık 8°C
Nem 46%
Basınç 1011 hPa
Görüş mesafesi: 16.1 km
Açık gökyüzü

METAR: PANI 270656Z AUTO 36004KT 10SM CLR 08/M03 A2985 RMK AO2 SLP100 T00831028 $

Saat: 23:24 (07:24 UTC)


TAF: eksik

4.000'den fazla havaalanı için hava durumu gözlemleri ve tahminleri (METAR ve TAF raporları).

Kullanılabilir istasyonlar harita üzerinde sarı ve kırmızı noktalarla gösterilir.

İstasyonun adını görmek için fareyi noktanın üzerinde gezdirin.

Sonrasında hava gözlem ve tahminlerini görmek için tıklayın.

Haritayı değiştirmek için: yaklaştırmak için siyah artı işaretli yeşil düğmeye ve uzaklaştırmak için de eksi işaretli düğmeye hızla tıklayın; bitişik haritalar için yeşil okları kullanın.


METAR-TAF: